PAL116 RPLL-CYVR
Flight info
| Callsign | PAL116 |
|---|---|
| Flight time | N/A |
| Altitude | 33000 |
| Route | JOM2R JOM A590 BUBDO Y527 DOMBI Y57 POROT Y809 IDLAN Y812 ADNAP OTR5 KALNA/N0486F350 DCT KALIG DCT CUTEE DCT CARTO DCT 50N180E 51N170W 52N160W/N0485F370 53N150W 53N140W DCT MANJO DCT POWOL WHSLR8 |
| Aircraft | B77W/H-L/LB1D1 |
Departure
| Time | 2026-05-04 12:02 |
|---|---|
| Airport | Ninoy Aquino International Airport (RPLL) |
Arrival
| Time | N/A |
|---|---|
| Airport | Vancouver International Airport (CYVR) |
| Time | Latitude | Longitude | Altitude | Speed | Heading |
|---|---|---|---|---|---|
| 2026-05-04 11:27 | 14.50516 | 121.00725 | 88 ft | 0 kts | 277° |
| 2026-05-04 11:49 | 14.50516 | 121.00726 | 87 ft | 1 kts | 277° |
| 2026-05-04 11:49 | 14.50515 | 121.00736 | 87 ft | 2 kts | 277° |
| 2026-05-04 11:49 | 14.50512 | 121.00756 | 87 ft | 2 kts | 277° |
| 2026-05-04 11:49 | 14.50511 | 121.00766 | 88 ft | 1 kts | 277° |
| 2026-05-04 11:50 | 14.50511 | 121.00781 | 88 ft | 2 kts | 251° |
| 2026-05-04 11:50 | 14.50518 | 121.00794 | 88 ft | 2 kts | 221° |
| 2026-05-04 11:50 | 14.50531 | 121.00802 | 88 ft | 2 kts | 194° |
| 2026-05-04 11:50 | 14.50541 | 121.00803 | 88 ft | 2 kts | 176° |
| 2026-05-04 11:51 | 14.50555 | 121.00800 | 88 ft | 0 kts | 151° |
| 2026-05-04 11:51 | 14.50559 | 121.00798 | 88 ft | 0 kts | 149° |
| 2026-05-04 11:51 | 14.50558 | 121.00798 | 88 ft | 0 kts | 149° |
| 2026-05-04 11:55 | 14.50369 | 121.00776 | 88 ft | 10 kts | 232° |
| 2026-05-04 11:55 | 14.50324 | 121.00696 | 88 ft | 8 kts | 240° |
| 2026-05-04 11:56 | 14.50305 | 121.00662 | 88 ft | 7 kts | 240° |
| 2026-05-04 11:56 | 14.50273 | 121.00605 | 88 ft | 6 kts | 240° |
| 2026-05-04 11:56 | 14.50256 | 121.00575 | 88 ft | 8 kts | 240° |
| 2026-05-04 11:56 | 14.50213 | 121.00497 | 88 ft | 10 kts | 240° |
| 2026-05-04 11:57 | 14.50188 | 121.00452 | 88 ft | 11 kts | 240° |
| 2026-05-04 11:57 | 14.50144 | 121.00372 | 88 ft | 13 kts | 240° |
| 2026-05-04 11:57 | 14.50074 | 121.00246 | 88 ft | 16 kts | 240° |
| 2026-05-04 11:57 | 14.50036 | 121.00178 | 88 ft | 17 kts | 240° |
| 2026-05-04 11:58 | 14.49952 | 121.00028 | 88 ft | 15 kts | 240° |
| 2026-05-04 11:58 | 14.49922 | 120.99983 | 88 ft | 6 kts | 228° |
| 2026-05-04 11:58 | 14.49911 | 120.99974 | 88 ft | 1 kts | 209° |
| 2026-05-04 11:58 | 14.49904 | 120.99971 | 88 ft | 0 kts | 195° |
| 2026-05-04 11:59 | 14.49900 | 120.99970 | 88 ft | 1 kts | 188° |
| 2026-05-04 11:59 | 14.49867 | 120.99974 | 88 ft | 4 kts | 165° |
| 2026-05-04 11:59 | 14.49844 | 120.99984 | 88 ft | 2 kts | 150° |
| 2026-05-04 11:59 | 14.49834 | 120.99990 | 88 ft | 1 kts | 149° |
| 2026-05-04 12:00 | 14.49815 | 121.00005 | 88 ft | 3 kts | 131° |
| 2026-05-04 12:00 | 14.49808 | 121.00030 | 88 ft | 4 kts | 88° |
| 2026-05-04 12:00 | 14.49813 | 121.00056 | 88 ft | 6 kts | 72° |
| 2026-05-04 12:00 | 14.49831 | 121.00095 | 88 ft | 5 kts | 61° |
| 2026-05-04 12:01 | 14.49919 | 121.00258 | 88 ft | 52 kts | 61° |
| 2026-05-04 12:01 | 14.50222 | 121.00806 | 88 ft | 120 kts | 59° |
| 2026-05-04 12:02 | 14.52211 | 121.04524 | 1589 ft | 191 kts | 59° |
| 2026-05-04 12:03 | 14.54789 | 121.09031 | 2780 ft | 247 kts | 61° |
| 2026-05-04 12:03 | 14.55953 | 121.11128 | 3620 ft | 257 kts | 61° |
| 2026-05-04 12:03 | 14.56545 | 121.12198 | 4103 ft | 259 kts | 61° |
| 2026-05-04 12:03 | 14.57184 | 121.13927 | 4777 ft | 264 kts | 80° |
| 2026-05-04 12:04 | 14.57507 | 121.16457 | 5768 ft | 268 kts | 82° |
| 2026-05-04 12:04 | 14.57653 | 121.17735 | 6236 ft | 271 kts | 82° |
| 2026-05-04 12:04 | 14.57947 | 121.20310 | 7163 ft | 274 kts | 82° |
| 2026-05-04 12:04 | 14.58094 | 121.21605 | 7669 ft | 274 kts | 82° |
| 2026-05-04 12:05 | 14.58315 | 121.23553 | 8370 ft | 276 kts | 82° |
| 2026-05-04 12:05 | 14.58540 | 121.25529 | 9068 ft | 278 kts | 82° |
| 2026-05-04 12:05 | 14.58764 | 121.27502 | 9737 ft | 280 kts | 82° |
| 2026-05-04 12:05 | 14.58993 | 121.29520 | 10322 ft | 286 kts | 82° |
| 2026-05-04 12:06 | 14.59232 | 121.31620 | 10614 ft | 303 kts | 82° |
| 2026-05-04 12:06 | 14.59483 | 121.33825 | 10932 ft | 319 kts | 82° |
| 2026-05-04 12:06 | 14.59747 | 121.36160 | 11278 ft | 335 kts | 82° |
| 2026-05-04 12:06 | 14.60023 | 121.38594 | 11607 ft | 350 kts | 83° |
| 2026-05-04 12:07 | 14.60215 | 121.40295 | 11828 ft | 360 kts | 83° |
| 2026-05-04 12:07 | 14.60610 | 121.43790 | 12414 ft | 375 kts | 83° |
| 2026-05-04 12:07 | 14.60909 | 121.46450 | 13031 ft | 379 kts | 83° |
| 2026-05-04 12:07 | 14.61316 | 121.50064 | 13909 ft | 383 kts | 83° |
| 2026-05-04 12:08 | 14.61523 | 121.51907 | 14320 ft | 386 kts | 83° |
| 2026-05-04 12:08 | 14.61936 | 121.55586 | 15100 ft | 391 kts | 83° |
| 2026-05-04 12:08 | 14.62250 | 121.58390 | 15722 ft | 394 kts | 83° |
| 2026-05-04 12:08 | 14.62458 | 121.60241 | 16117 ft | 396 kts | 83° |
| 2026-05-04 12:09 | 14.62880 | 121.64020 | 16901 ft | 400 kts | 83° |
| 2026-05-04 12:09 | 14.63203 | 121.66912 | 17475 ft | 404 kts | 84° |
| 2026-05-04 12:09 | 14.63417 | 121.68823 | 17828 ft | 406 kts | 84° |
| 2026-05-04 12:09 | 14.63742 | 121.71737 | 18341 ft | 411 kts | 84° |
| 2026-05-04 12:10 | 14.64067 | 121.74657 | 18887 ft | 414 kts | 84° |
| 2026-05-04 12:10 | 14.64393 | 121.77592 | 19407 ft | 417 kts | 84° |
| 2026-05-04 12:10 | 14.64726 | 121.80584 | 19865 ft | 422 kts | 84° |
| 2026-05-04 12:10 | 14.65060 | 121.83600 | 20308 ft | 427 kts | 84° |
| 2026-05-04 12:11 | 14.65401 | 121.86677 | 20821 ft | 430 kts | 84° |
| 2026-05-04 12:11 | 14.65742 | 121.89753 | 21297 ft | 433 kts | 84° |
| 2026-05-04 12:11 | 14.66083 | 121.92843 | 21727 ft | 437 kts | 84° |
| 2026-05-04 12:11 | 14.66546 | 121.97031 | 22307 ft | 443 kts | 84° |
| 2026-05-04 12:12 | 14.66777 | 121.99131 | 22606 ft | 445 kts | 84° |
| 2026-05-04 12:12 | 14.67246 | 122.03387 | 23203 ft | 449 kts | 84° |
| 2026-05-04 12:12 | 14.67598 | 122.06590 | 23638 ft | 452 kts | 84° |
| 2026-05-04 12:12 | 14.67833 | 122.08729 | 23924 ft | 455 kts | 84° |
| 2026-05-04 12:13 | 14.68192 | 122.11996 | 24346 ft | 458 kts | 84° |
| 2026-05-04 12:14 | 14.74476 | 122.35506 | 27133 ft | 489 kts | 49° |
| 2026-05-04 12:15 | 14.76893 | 122.37969 | 27506 ft | 492 kts | 40° |
| 2026-05-04 12:15 | 14.78715 | 122.39450 | 27759 ft | 494 kts | 37° |
| 2026-05-04 12:15 | 14.81468 | 122.41573 | 28160 ft | 497 kts | 37° |
| 2026-05-04 12:15 | 14.84268 | 122.43725 | 28549 ft | 500 kts | 37° |
| 2026-05-04 12:16 | 14.87070 | 122.45882 | 28932 ft | 503 kts | 36° |
| 2026-05-04 12:16 | 14.89845 | 122.48023 | 29361 ft | 505 kts | 36° |
| 2026-05-04 12:16 | 14.92663 | 122.50202 | 29932 ft | 503 kts | 36° |
| 2026-05-04 12:16 | 14.96376 | 122.53076 | 30849 ft | 498 kts | 36° |
| 2026-05-04 12:17 | 14.98223 | 122.54507 | 31274 ft | 495 kts | 36° |
| 2026-05-04 12:17 | 15.00991 | 122.56654 | 31837 ft | 493 kts | 36° |
| 2026-05-04 12:17 | 15.04625 | 122.59472 | 32408 ft | 493 kts | 36° |
| 2026-05-04 12:17 | 15.07401 | 122.61628 | 32858 ft | 493 kts | 36° |
| 2026-05-04 12:18 | 15.12888 | 122.65891 | 32941 ft | 494 kts | 36° |
| 2026-05-04 12:18 | 15.18380 | 122.70163 | 32939 ft | 492 kts | 36° |
| 2026-05-04 12:19 | 15.22948 | 122.73718 | 32939 ft | 493 kts | 36° |
| 2026-05-04 12:19 | 15.28453 | 122.78006 | 32941 ft | 494 kts | 36° |
| 2026-05-04 12:20 | 15.33962 | 122.82300 | 32938 ft | 495 kts | 36° |
| 2026-05-04 12:20 | 15.39474 | 122.86601 | 32944 ft | 496 kts | 36° |
| 2026-05-04 12:21 | 15.44979 | 122.90896 | 32949 ft | 497 kts | 36° |
| 2026-05-04 12:21 | 15.51458 | 122.95956 | 32951 ft | 497 kts | 36° |
| 2026-05-04 12:22 | 15.56038 | 122.99535 | 32949 ft | 495 kts | 36° |
| 2026-05-04 12:22 | 15.62487 | 123.04579 | 32951 ft | 497 kts | 36° |
| 2026-05-04 12:23 | 15.68021 | 123.08910 | 32951 ft | 496 kts | 35° |
| 2026-05-04 12:23 | 15.72625 | 123.12516 | 32952 ft | 498 kts | 35° |
| 2026-05-04 12:24 | 15.79083 | 123.17579 | 32950 ft | 497 kts | 35° |
| 2026-05-04 12:24 | 15.83707 | 123.21205 | 32952 ft | 498 kts | 35° |
| 2026-05-04 12:25 | 15.89230 | 123.25540 | 32952 ft | 498 kts | 35° |
| 2026-05-04 12:25 | 15.94758 | 123.29882 | 32952 ft | 497 kts | 35° |
| 2026-05-04 12:26 | 16.00251 | 123.34199 | 32952 ft | 496 kts | 35° |
| 2026-05-04 12:26 | 16.05740 | 123.38517 | 32954 ft | 496 kts | 35° |
| 2026-05-04 12:27 | 16.11285 | 123.42881 | 32954 ft | 497 kts | 35° |
| 2026-05-04 12:27 | 16.17704 | 123.47937 | 32953 ft | 497 kts | 35° |
| 2026-05-04 12:28 | 16.22293 | 123.51555 | 32955 ft | 497 kts | 35° |
| 2026-05-04 12:28 | 16.27814 | 123.55910 | 32954 ft | 497 kts | 35° |
| 2026-05-04 12:29 | 16.33314 | 123.60251 | 32955 ft | 497 kts | 34° |
| 2026-05-04 12:29 | 16.39758 | 123.65341 | 32955 ft | 499 kts | 35° |
| 2026-05-04 12:30 | 16.44382 | 123.68997 | 32949 ft | 498 kts | 35° |
| 2026-05-04 12:30 | 16.50831 | 123.74100 | 32948 ft | 497 kts | 35° |
| 2026-05-04 12:31 | 16.55417 | 123.77731 | 32950 ft | 497 kts | 35° |
| 2026-05-04 12:31 | 16.60920 | 123.82091 | 32955 ft | 497 kts | 35° |
| 2026-05-04 12:32 | 16.69181 | 123.88641 | 32961 ft | 497 kts | 35° |
| 2026-05-04 12:33 | 16.74711 | 123.93030 | 32964 ft | 498 kts | 35° |
| 2026-05-04 12:33 | 16.80202 | 123.97392 | 32965 ft | 498 kts | 35° |
| 2026-05-04 12:34 | 16.85725 | 124.01782 | 32968 ft | 499 kts | 35° |
| 2026-05-04 12:34 | 16.91276 | 124.06197 | 32972 ft | 499 kts | 34° |
| 2026-05-04 12:35 | 16.97724 | 124.11331 | 32969 ft | 497 kts | 35° |
| 2026-05-04 12:35 | 17.03186 | 124.15684 | 32974 ft | 497 kts | 35° |
| 2026-05-04 12:36 | 17.07791 | 124.19356 | 32974 ft | 499 kts | 35° |
| 2026-05-04 12:36 | 17.13321 | 124.23769 | 32978 ft | 498 kts | 35° |
| 2026-05-04 12:37 | 17.18810 | 124.28152 | 32980 ft | 498 kts | 35° |
| 2026-05-04 12:37 | 17.24320 | 124.32555 | 32980 ft | 498 kts | 35° |
| 2026-05-04 12:38 | 17.29820 | 124.36954 | 32975 ft | 497 kts | 35° |
| 2026-05-04 12:38 | 17.35305 | 124.41344 | 32977 ft | 499 kts | 35° |
| 2026-05-04 12:39 | 17.40848 | 124.45785 | 32978 ft | 498 kts | 35° |
| 2026-05-04 12:39 | 17.46326 | 124.50176 | 32978 ft | 498 kts | 35° |
| 2026-05-04 12:40 | 17.52723 | 124.55310 | 32978 ft | 496 kts | 35° |
| 2026-05-04 12:40 | 17.57310 | 124.58993 | 32978 ft | 497 kts | 35° |
| 2026-05-04 12:41 | 17.63725 | 124.64150 | 32978 ft | 496 kts | 35° |
| 2026-05-04 12:41 | 17.69242 | 124.68587 | 32967 ft | 496 kts | 35° |
| 2026-05-04 12:42 | 17.73798 | 124.72254 | 32973 ft | 497 kts | 35° |
| 2026-05-04 12:42 | 17.79270 | 124.76662 | 32974 ft | 496 kts | 35° |
| 2026-05-04 12:43 | 17.84741 | 124.81072 | 32968 ft | 497 kts | 35° |
| 2026-05-04 12:43 | 17.90242 | 124.85511 | 32973 ft | 497 kts | 35° |
| 2026-05-04 12:44 | 17.96638 | 124.90676 | 32975 ft | 498 kts | 35° |
| 2026-05-04 12:44 | 18.01229 | 124.94386 | 32970 ft | 498 kts | 35° |
| 2026-05-04 12:45 | 18.07622 | 124.99557 | 32970 ft | 497 kts | 35° |
| 2026-05-04 12:45 | 18.12199 | 125.03262 | 32969 ft | 496 kts | 35° |
| 2026-05-04 12:46 | 18.17674 | 125.07697 | 32963 ft | 496 kts | 35° |
| 2026-05-04 12:46 | 18.23134 | 125.12124 | 32964 ft | 496 kts | 35° |
| 2026-05-04 12:47 | 18.28612 | 125.16569 | 32969 ft | 497 kts | 35° |
| 2026-05-04 12:47 | 18.35029 | 125.21780 | 32973 ft | 499 kts | 35° |
| 2026-05-04 12:48 | 18.39573 | 125.25474 | 32974 ft | 498 kts | 35° |
| 2026-05-04 12:48 | 18.45095 | 125.29965 | 32981 ft | 500 kts | 35° |
| 2026-05-04 12:49 | 18.50567 | 125.34420 | 32982 ft | 498 kts | 35° |
| 2026-05-04 12:49 | 18.56057 | 125.38893 | 32979 ft | 498 kts | 35° |
| 2026-05-04 12:50 | 18.61558 | 125.43378 | 32974 ft | 499 kts | 35° |
| 2026-05-04 12:50 | 18.67065 | 125.47874 | 32976 ft | 499 kts | 35° |
| 2026-05-04 12:51 | 18.72529 | 125.52337 | 32975 ft | 499 kts | 35° |
| 2026-05-04 12:51 | 18.78949 | 125.57585 | 32973 ft | 499 kts | 35° |
| 2026-05-04 12:52 | 18.83537 | 125.61340 | 32974 ft | 500 kts | 35° |
| 2026-05-04 12:52 | 18.89042 | 125.65848 | 32973 ft | 501 kts | 35° |
| 2026-05-04 12:53 | 18.95441 | 125.71093 | 32969 ft | 501 kts | 35° |
| 2026-05-04 12:53 | 19.00032 | 125.74859 | 32969 ft | 501 kts | 35° |
| 2026-05-04 12:54 | 19.05563 | 125.79401 | 32970 ft | 501 kts | 35° |
| 2026-05-04 12:54 | 19.11051 | 125.83910 | 32970 ft | 500 kts | 35° |
| 2026-05-04 12:55 | 19.16571 | 125.88450 | 32970 ft | 501 kts | 35° |
| 2026-05-04 12:55 | 19.22060 | 125.92969 | 32971 ft | 502 kts | 36° |
| 2026-05-04 12:56 | 19.27575 | 125.97512 | 32971 ft | 501 kts | 35° |
| 2026-05-04 12:56 | 19.33076 | 126.02048 | 32971 ft | 501 kts | 36° |
| 2026-05-04 12:57 | 19.38561 | 126.06575 | 32972 ft | 501 kts | 36° |
| 2026-05-04 12:57 | 19.44042 | 126.11102 | 32972 ft | 500 kts | 35° |
| 2026-05-04 12:58 | 19.49534 | 126.15643 | 32972 ft | 499 kts | 35° |
| 2026-05-04 12:58 | 19.55006 | 126.20171 | 32973 ft | 499 kts | 36° |
| 2026-05-04 12:59 | 19.60517 | 126.24735 | 32973 ft | 500 kts | 36° |
| 2026-05-04 12:59 | 19.65995 | 126.29276 | 32975 ft | 500 kts | 36° |
| 2026-05-04 13:00 | 19.71466 | 126.33816 | 32980 ft | 500 kts | 36° |
| 2026-05-04 13:00 | 19.77858 | 126.39125 | 32986 ft | 500 kts | 36° |
| 2026-05-04 13:01 | 19.82399 | 126.42899 | 32986 ft | 499 kts | 36° |
| 2026-05-04 13:01 | 19.87867 | 126.47448 | 32989 ft | 499 kts | 36° |